Time;durP1;ratioP1;P1;durP2;ratioP2;P2;SDS_P1;SDS_P2;PMS_P1;PMS_P2;Temp;Humidity;BMP_temperature;BMP_pressure;BME280_temperature;BME280_humidity;BME280_pressure;Samples;Min_cycle;Max_cycle;Signal;HPM_P1;HPM_P2
2022/06/13 00:00:19;;;;;;;6.45;2.60;;;;;;;21.91;53.70;98406.81;5034877;28;20061;-80
2022/06/13 00:02:44;;;;;;;3.13;2.50;;;;;;;21.90;53.57;98404.34;5056079;28;20442;-81
2022/06/13 00:05:11;;;;;;;5.95;2.20;;;;;;;21.89;53.78;98408.88;5054444;28;20029;-81
2022/06/13 00:07:36;;;;;;;6.43;2.33;;;;;;;21.86;53.89;98398.63;5042576;28;20113;-81
2022/06/13 00:10:02;;;;;;;5.68;2.92;;;;;;;21.85;53.67;98387.19;5035718;28;20065;-81
2022/06/13 00:12:28;;;;;;;5.57;2.50;;;;;;;21.83;53.60;98391.06;5034346;28;20029;-81
2022/06/13 00:14:53;;;;;;;4.80;2.40;;;;;;;21.84;53.68;98390.84;5034481;28;20113;-81
2022/06/13 00:17:19;;;;;;;4.03;2.45;;;;;;;21.83;53.66;98389.22;5033893;28;20455;-81
2022/06/13 00:19:44;;;;;;;4.25;2.42;;;;;;;21.81;53.78;98382.47;5034434;28;20064;-81
2022/06/13 00:22:10;;;;;;;8.63;2.50;;;;;;;21.80;53.93;98380.81;5034063;28;20476;-81
2022/06/13 00:24:35;;;;;;;6.10;2.53;;;;;;;21.77;53.68;98376.72;5035440;28;20112;-81
2022/06/13 00:27:01;;;;;;;4.07;2.60;;;;;;;21.77;53.65;98375.91;5035716;28;20035;-82
2022/06/13 00:29:27;;;;;;;2.83;2.20;;;;;;;21.78;53.87;98380.22;5034308;28;20030;-81
2022/06/13 00:31:52;;;;;;;5.32;2.42;;;;;;;21.72;54.00;98381.00;5034253;28;20120;-81
2022/06/13 00:34:18;;;;;;;6.28;2.35;;;;;;;21.75;54.18;98383.25;5035274;28;20026;-81
2022/06/13 00:36:43;;;;;;;5.75;2.80;;;;;;;21.74;53.88;98381.59;5035325;28;20037;-81
2022/06/13 00:39:09;;;;;;;4.50;2.50;;;;;;;21.72;54.02;98379.16;5035324;28;20040;-82
2022/06/13 00:41:37;;;;;;;5.10;2.58;;;;;;;21.71;54.06;98382.81;5035237;28;20459;-81
2022/06/13 00:44:19;;;;;;;5.05;2.90;;;;;;;21.69;54.09;98383.00;5017796;28;20511;-80
2022/06/13 00:46:45;;;;;;;3.75;2.45;;;;;;;21.66;54.12;98379.94;5033909;28;20087;-80
2022/06/13 00:49:14;;;;;;;3.80;2.40;;;;;;;21.69;54.04;98377.69;5033945;28;20136;-81
2022/06/13 00:51:45;;;;;;;6.00;2.50;;;;;;;21.71;53.81;98366.06;5033833;28;20030;-82
2022/06/13 00:54:11;;;;;;;4.25;2.88;;;;;;;21.71;53.84;98376.69;5033319;28;20056;-81
2022/06/13 00:56:36;;;;;;;6.18;2.58;;;;;;;21.68;53.78;98369.97;5033915;28;20449;-81
2022/06/13 00:59:04;;;;;;;6.10;2.47;;;;;;;21.70;53.78;98357.28;5035246;28;20029;-81
2022/06/13 01:01:29;;;;;;;3.65;2.60;;;;;;;21.72;53.87;98370.38;5044351;28;20025;-81
2022/06/13 01:03:57;;;;;;;3.25;2.50;;;;;;;21.66;53.75;98364.84;5054762;28;20033;-81
2022/06/13 01:06:22;;;;;;;4.30;2.80;;;;;;;21.70;53.93;98367.91;5055267;28;20531;-81
2022/06/13 01:08:48;;;;;;;5.55;2.67;;;;;;;21.71;53.83;98366.06;5037034;28;20025;-81
2022/06/13 01:11:16;;;;;;;3.22;2.67;;;;;;;21.71;53.66;98360.75;5053689;28;20037;-81
2022/06/13 01:14:15;;;;;;;3.65;2.50;;;;;;;21.71;53.89;98352.78;5053556;28;20082;-82
2022/06/13 01:16:43;;;;;;;4.28;2.30;;;;;;;21.72;53.80;98354.44;5053223;28;20032;-81
2022/06/13 01:19:12;;;;;;;;;;;;;;;21.72;53.57;98360.56;5054999;28;20024;-81
2022/06/13 01:21:42;;;;;;;6.15;2.72;;;;;;;21.69;53.63;98360.94;5054495;28;19928;-82
2022/06/13 01:24:26;;;;;;;4.05;2.47;;;;;;;21.71;53.65;98358.91;5053412;28;20021;-82
2022/06/13 01:26:52;;;;;;;4.20;2.55;;;;;;;21.68;53.87;98348.72;5054401;28;20028;-82
2022/06/13 01:29:39;;;;;;;4.95;2.60;;;;;;;21.69;53.82;98350.31;5055247;28;20111;-81
2022/06/13 01:32:13;;;;;;;3.35;2.35;;;;;;;21.69;53.61;98355.63;5054531;28;20033;-82
2022/06/13 01:34:43;;;;;;;7.35;2.53;;;;;;;21.67;53.82;98341.75;5054289;28;20025;-82
2022/06/13 01:37:24;;;;;;;3.83;2.40;;;;;;;21.72;54.00;98343.81;5053415;28;20028;-82
2022/06/13 01:40:11;;;;;;;4.50;2.38;;;;;;;21.70;53.74;98338.69;5054729;28;20025;-82
2022/06/13 01:43:00;;;;;;;5.03;2.67;;;;;;;21.67;53.64;98339.91;5054226;28;20063;-81
2022/06/13 01:45:35;;;;;;;3.35;2.47;;;;;;;21.67;54.08;98328.47;5052782;28;20029;-81
2022/06/13 01:48:30;;;;;;;4.25;2.45;;;;;;;21.67;53.87;98336.44;5053491;28;20025;-80
2022/06/13 01:51:05;;;;;;;12.02;2.67;;;;;;;21.68;53.51;98336.22;5052778;28;20503;-80
2022/06/13 01:53:54;;;;;;;3.05;2.35;;;;;;;21.68;53.87;98330.91;5032818;28;20511;-82
2022/06/13 01:56:43;;;;;;;5.80;3.08;;;;;;;21.67;53.73;98337.25;5032521;28;20026;-82
2022/06/13 01:59:14;;;;;;;4.80;2.60;;;;;;;21.65;53.84;98331.31;5031378;28;20042;-82
2022/06/13 02:01:50;;;;;;;4.20;2.47;;;;;;;21.67;53.65;98331.94;5041022;28;20075;-81
2022/06/13 02:04:46;;;;;;;5.68;2.40;;;;;;;21.70;53.46;98338.69;5002062;28;20558;-81
2022/06/13 02:07:17;;;;;;;4.03;2.70;;;;;;;21.68;53.53;98344.22;5042298;28;20052;-81
2022/06/13 02:10:10;;;;;;;4.10;2.78;;;;;;;21.75;53.52;98346.88;5018527;28;20136;-81
2022/06/13 02:12:36;;;;;;;3.85;2.78;;;;;;;21.77;53.11;98341.38;4972280;28;20498;-80
2022/06/13 02:15:13;;;;;;;4.20;2.80;;;;;;;21.75;53.41;98349.53;4972469;28;20039;-81
2022/06/13 02:17:45;;;;;;;5.32;2.33;;;;;;;21.77;53.00;98352.00;4956707;28;20066;-82
2022/06/13 02:20:15;;;;;;;2.97;2.63;;;;;;;21.77;53.13;98355.47;4972745;28;20049;-81
2022/06/13 02:22:43;;;;;;;4.20;2.60;;;;;;;21.79;52.85;98345.47;4955772;28;20143;-81
2022/06/13 02:25:37;;;;;;;4.57;2.65;;;;;;;21.83;53.00;98352.00;4956265;28;20419;-81
2022/06/13 02:28:06;;;;;;;3.28;2.67;;;;;;;21.85;53.17;98354.47;4972085;28;20046;-83
2022/06/13 02:30:34;;;;;;;4.95;2.70;;;;;;;21.85;52.91;98371.25;4972072;28;20481;-82
2022/06/13 02:33:04;;;;;;;2.80;2.47;;;;;;;21.88;52.81;98364.69;4956374;28;20035;-80
2022/06/13 02:35:36;;;;;;;3.85;2.72;;;;;;;21.92;52.77;98367.78;4968274;28;20466;-80
2022/06/13 02:38:32;;;;;;;4.28;2.63;;;;;;;21.94;52.39;98369.22;4937689;29;20093;-81
2022/06/13 02:41:04;;;;;;;4.13;2.70;;;;;;;21.94;52.60;98377.19;4939547;29;20086;-80
2022/06/13 02:44:04;;;;;;;3.88;2.90;;;;;;;21.98;52.21;98373.13;4920937;29;20050;-80
2022/06/13 02:46:59;;;;;;;3.92;2.80;;;;;;;22.05;51.84;98376.63;4952166;29;20043;-80
2022/06/13 02:49:40;;;;;;;3.38;2.63;;;;;;;22.05;52.26;98378.47;4968419;28;20042;-80
2022/06/13 02:52:28;;;;;;;5.72;3.15;;;;;;;22.10;52.12;98383.19;5000220;28;20029;-81
2022/06/13 02:54:56;;;;;;;4.35;2.80;;;;;;;22.14;51.92;98385.25;5017756;28;20037;-80
2022/06/13 02:57:34;;;;;;;3.40;2.80;;;;;;;22.22;51.93;98392.22;5031567;28;20091;-80
2022/06/13 03:00:08;;;;;;;;;;;;;;;22.31;51.69;98392.88;5033092;28;20063;-80
2022/06/13 03:03:05;;;;;;;6.30;2.80;;;;;;;22.58;50.84;98397.22;5048087;28;19919;-80
2022/06/13 03:05:42;;;;;;;3.35;2.78;;;;;;;22.92;49.83;98398.03;5035094;28;20135;-81
2022/06/13 03:08:10;;;;;;;3.85;2.53;;;;;;;23.11;49.25;98385.78;5052907;28;20035;-80
2022/06/13 03:10:41;;;;;;;6.03;2.72;;;;;;;23.05;49.85;98383.91;5052512;28;20025;-80
2022/06/13 03:13:33;;;;;;;4.15;2.50;;;;;;;23.04;49.81;98389.44;5051425;28;20032;-81
2022/06/13 03:16:13;;;;;;;4.28;2.55;;;;;;;23.10;49.65;98381.50;5052118;28;20068;-81
2022/06/13 03:18:45;;;;;;;4.40;2.60;;;;;;;23.11;49.45;98380.44;5034786;28;20028;-81
2022/06/13 03:21:17;;;;;;;6.88;2.92;;;;;;;23.06;49.75;98390.88;5035272;28;20029;-86
2022/06/13 03:23:47;;;;;;;3.30;2.45;;;;;;;23.03;49.37;98398.47;5018161;28;20484;-77
2022/06/13 03:26:19;;;;;;;7.00;2.83;;;;;;;22.99;49.76;98383.91;5050914;28;20446;-72
2022/06/13 03:28:49;;;;;;;5.65;2.70;;;;;;;22.97;49.66;98386.78;5034959;28;20033;-72
2022/06/13 03:31:37;;;;;;;7.10;2.92;;;;;;;23.03;49.68;98396.63;5050905;28;20029;-72
2022/06/13 03:34:06;;;;;;;3.75;2.70;;;;;;;23.03;49.44;98391.28;5051135;28;20032;-73
2022/06/13 03:36:41;;;;;;;5.18;2.70;;;;;;;23.25;48.77;98394.56;5034275;28;20501;-74
2022/06/13 03:39:12;;;;;;;5.57;2.80;;;;;;;23.30;48.74;98399.28;5050868;28;20047;-72
2022/06/13 03:41:46;;;;;;;4.38;2.55;;;;;;;23.46;48.17;98395.34;5052559;28;20476;-75
2022/06/13 03:44:33;;;;;;;4.50;2.80;;;;;;;23.95;47.30;98382.50;5051063;28;20043;-76
2022/06/13 03:47:01;;;;;;;4.93;2.67;;;;;;;23.99;47.30;98379.22;5034164;28;20491;-72
2022/06/13 03:49:35;;;;;;;7.47;2.78;;;;;;;24.02;47.28;98376.13;5034741;28;20033;-72
2022/06/13 03:52:02;;;;;;;7.30;2.83;;;;;;;24.07;47.24;98366.66;5016802;28;20119;-72
2022/06/13 03:54:43;;;;;;;9.75;2.67;;;;;;;24.41;46.56;98369.94;5016687;28;20075;-72
2022/06/13 03:57:43;;;;;;;6.47;2.90;;;;;;;25.46;44.49;98370.09;5033499;28;20035;-72
2022/06/13 04:00:21;;;;;;;5.03;2.67;;;;;;;26.52;42.11;98372.44;5047701;28;20033;-74
2022/06/13 04:02:46;;;;;;;4.90;2.53;;;;;;;26.66;41.90;98373.09;5027535;28;20475;-74
2022/06/13 04:05:31;;;;;;;7.35;2.50;;;;;;;27.83;39.91;98377.78;5011334;28;20041;-73
2022/06/13 04:07:57;;;;;;;4.38;2.15;;;;;;;28.85;38.04;98368.91;5028094;28;20025;-72
2022/06/13 04:10:23;;;;;;;4.22;2.47;;;;;;;28.77;38.09;98371.22;4994763;28;20077;-72
2022/06/13 04:12:56;;;;;;;3.80;2.30;;;;;;;28.29;38.77;98376.00;5013189;28;20464;-72
2022/06/13 04:15:48;;;;;;;6.30;2.22;;;;;;;28.03;38.77;98380.91;5013172;28;20603;-72
2022/06/13 04:18:23;;;;;;;4.40;2.03;;;;;;;27.88;38.78;98391.31;5013643;28;20656;-72
2022/06/13 04:21:07;;;;;;;2.78;2.20;;;;;;;27.71;39.18;98386.69;5014026;28;20060;-72
2022/06/13 04:23:53;;;;;;;3.40;2.42;;;;;;;27.56;39.97;98399.78;5012788;28;20073;-72
2022/06/13 04:26:57;;;;;;;7.57;2.30;;;;;;;27.33;40.29;98393.41;5013023;28;20486;-72
2022/06/13 04:29:29;;;;;;;3.78;2.17;;;;;;;27.23;40.15;98399.31;4938960;28;20065;-73
2022/06/13 04:32:01;;;;;;;6.45;2.25;;;;;;;27.11;40.20;98406.53;4942192;28;20042;-73
2022/06/13 04:34:29;;;;;;;3.80;2.45;;;;;;;26.95;40.70;98413.41;4958514;28;20505;-73
2022/06/13 04:36:55;;;;;;;4.35;2.17;;;;;;;26.86;40.66;98414.78;4932388;28;20039;-73
2022/06/13 04:39:23;;;;;;;5.68;2.40;;;;;;;26.83;40.94;98421.41;4925482;28;20038;-73
2022/06/13 04:41:49;;;;;;;3.25;2.05;;;;;;;27.67;39.34;98423.06;4942863;28;20496;-72
2022/06/13 04:44:18;;;;;;;3.15;2.20;;;;;;;29.51;36.00;98416.66;4942301;28;20086;-74
2022/06/13 04:46:44;;;;;;;5.50;2.05;;;;;;;30.74;34.25;98417.25;4957960;28;20191;-74
2022/06/13 04:49:46;;;;;;;4.40;2.17;;;;;;;32.05;32.14;98427.47;4942028;28;20478;-74
2022/06/13 04:52:16;;;;;;;4.07;2.00;;;;;;;32.43;31.57;98422.75;4938667;29;20043;-73
2022/06/13 04:54:52;;;;;;;4.72;1.90;;;;;;;31.36;33.26;98429.31;4922903;29;20101;-74
2022/06/13 04:57:18;;;;;;;4.00;2.20;;;;;;;30.69;33.43;98425.28;4924161;29;20113;-73
2022/06/13 04:59:43;;;;;;;4.47;2.40;;;;;;;30.28;34.59;98431.06;4922955;29;20521;-73
2022/06/13 05:02:18;;;;;;;7.15;2.50;;;;;;;29.88;35.57;98423.34;4955988;28;20043;-73
2022/06/13 05:04:43;;;;;;;4.10;2.22;;;;;;;29.50;35.66;98430.34;4961763;28;20039;-73
2022/06/13 05:07:27;;;;;;;3.53;2.03;;;;;;;29.13;36.63;98425.47;4960880;28;20437;-73
2022/06/13 05:09:57;;;;;;;3.88;2.40;;;;;;;28.83;37.01;98429.31;4977017;28;20128;-73
2022/06/13 05:12:30;;;;;;;6.45;2.33;;;;;;;28.48;37.45;98428.44;4960978;28;20115;-73
2022/06/13 05:15:01;;;;;;;3.75;2.45;;;;;;;28.17;38.13;98435.09;4976859;28;20185;-73
2022/06/13 05:17:45;;;;;;;3.75;2.17;;;;;;;27.91;38.79;98442.63;4992949;28;20492;-73
2022/06/13 05:20:26;;;;;;;5.57;2.35;;;;;;;27.60;39.48;98444.66;4993068;28;20039;-73
2022/06/13 05:23:33;;;;;;;4.70;2.20;;;;;;;27.31;40.01;98450.94;4992398;28;20058;-73
2022/06/13 05:25:59;;;;;;;3.88;2.28;;;;;;;27.11;40.70;98449.41;4973490;28;20027;-73
2022/06/13 05:28:29;;;;;;;6.78;2.65;;;;;;;26.96;41.04;98436.44;4988844;28;20433;-73
2022/06/13 05:30:56;;;;;;;5.05;1.90;;;;;;;26.75;42.66;98437.00;4976695;28;20417;-77
2022/06/13 05:33:24;;;;;;;9.10;2.35;;;;;;;26.42;43.09;98438.25;4960523;28;20479;-75
2022/06/13 05:35:52;;;;;;;6.40;2.42;;;;;;;26.18;44.01;98422.94;4976468;28;20038;-77
2022/06/13 05:38:37;;;;;;;5.30;2.60;;;;;;;25.97;44.20;98426.09;4992367;28;20136;-78
2022/06/13 05:41:02;;;;;;;6.93;2.53;;;;;;;25.72;44.07;98423.47;4992726;28;20037;-77
2022/06/13 05:43:28;;;;;;;5.15;2.58;;;;;;;25.54;43.70;98419.75;4992475;28;20042;-77
2022/06/13 05:45:53;;;;;;;3.53;2.55;;;;;;;25.57;43.94;98416.66;4944583;28;20074;-77
2022/06/13 05:48:20;;;;;;;11.38;2.60;;;;;;;25.50;44.26;98420.44;4976215;28;20034;-77
2022/06/13 05:50:45;;;;;;;3.83;2.28;;;;;;;25.51;44.42;98422.88;4976273;28;20041;-76
2022/06/13 05:53:16;;;;;;;4.55;2.58;;;;;;;25.49;43.99;98418.78;4992545;28;20409;-83
2022/06/13 05:55:42;;;;;;;8.02;2.70;;;;;;;25.58;44.72;98420.13;4964979;28;20038;-77
2022/06/13 05:58:11;;;;;;;4.70;2.65;;;;;;;25.58;44.85;98423.59;5016080;28;20028;-76
2022/06/13 06:00:38;;;;;;;3.90;2.67;;;;;;;25.72;44.49;98421.63;5016055;28;20025;-80
2022/06/13 06:03:04;;;;;;;4.63;2.77;;;;;;;25.68;44.09;98423.13;5016357;28;20044;-76
2022/06/13 06:05:30;;;;;;;4.55;2.78;;;;;;;25.67;43.96;98423.34;5032482;28;20409;-76
2022/06/13 06:07:56;;;;;;;5.95;2.70;;;;;;;25.59;44.67;98429.78;5016303;28;20061;-77
2022/06/13 06:10:32;;;;;;;5.40;2.60;;;;;;;25.52;44.47;98416.47;5015869;28;20064;-78
2022/06/13 06:12:58;;;;;;;6.85;2.85;;;;;;;25.48;44.82;98422.50;5016390;28;20033;-77
2022/06/13 06:15:24;;;;;;;5.50;2.83;;;;;;;25.42;44.98;98410.84;5015961;28;20035;-80
2022/06/13 06:17:49;;;;;;;5.20;2.60;;;;;;;25.38;44.96;98415.81;4999683;28;20040;-83
2022/06/13 06:20:19;;;;;;;6.63;2.88;;;;;;;25.41;45.32;98407.38;5032665;28;20056;-90
2022/06/13 06:22:45;;;;;;;9.13;3.10;;;;;;;25.47;45.55;98408.31;4999817;28;20128;-87
2022/06/13 06:25:10;;;;;;;7.20;2.63;;;;;;;25.49;45.62;98400.88;4999465;28;20088;-86
2022/06/13 06:27:36;;;;;;;5.05;2.55;;;;;;;25.54;45.77;98408.25;5016141;28;20068;-85
2022/06/13 06:30:03;;;;;;;5.55;2.60;;;;;;;25.53;45.51;98398.59;5032786;28;20395;-83
2022/06/13 06:32:28;;;;;;;6.22;2.75;;;;;;;25.55;45.76;98404.53;5031525;28;20028;-90
2022/06/13 06:34:54;;;;;;;3.00;2.50;;;;;;;25.59;45.88;98411.88;5012595;28;20033;-89
2022/06/13 06:37:21;;;;;;;5.40;2.88;;;;;;;25.60;45.87;98410.88;5033262;28;20037;-89
2022/06/13 06:39:47;;;;;;;9.15;2.80;;;;;;;25.61;45.60;98425.84;5034294;28;20395;-85
2022/06/13 06:42:12;;;;;;;9.10;2.80;;;;;;;25.63;45.39;98422.94;5033061;28;20030;-79
2022/06/13 06:44:38;;;;;;;4.45;2.50;;;;;;;25.57;45.53;98413.13;5051681;28;20025;-81
2022/06/13 06:47:06;;;;;;;8.25;2.72;;;;;;;25.55;45.11;98420.56;5031309;28;20033;-78
2022/06/13 06:49:34;;;;;;;4.25;2.78;;;;;;;25.54;45.07;98429.63;5040239;28;20048;-82
2022/06/13 06:52:01;;;;;;;2.78;2.38;;;;;;;25.50;45.26;98402.53;4999057;28;20048;-78
2022/06/13 06:59:55;;;;;;;4.25;2.45;;;;;;;25.44;45.09;98412.25;5032605;28;20047;-71
2022/06/13 07:02:23;;;;;;;4.40;2.80;;;;;;;25.44;44.83;98422.13;5013785;28;20096;-73
2022/06/13 07:04:52;;;;;;;3.78;2.50;;;;;;;25.45;45.06;98419.22;4996946;28;20120;-73
2022/06/13 07:07:17;;;;;;;3.92;2.63;;;;;;;25.44;44.95;98414.09;5014445;28;20083;-73
2022/06/13 07:09:43;;;;;;;3.20;2.40;;;;;;;25.41;44.97;98418.06;5015326;28;20030;-72
2022/06/13 07:12:09;;;;;;;7.43;2.60;;;;;;;25.38;45.17;98426.50;5014773;28;20476;-71
2022/06/13 07:14:35;;;;;;;5.10;2.60;;;;;;;25.33;45.04;98414.84;5016124;28;20128;-69
2022/06/13 07:17:02;;;;;;;5.05;2.65;;;;;;;25.33;44.89;98426.31;5015122;28;20069;-72
2022/06/13 07:19:28;;;;;;;4.82;2.63;;;;;;;25.26;44.93;98434.38;5031500;28;20388;-72
2022/06/13 07:21:53;;;;;;;4.40;2.40;;;;;;;25.19;44.97;98416.78;5014590;28;20038;-71
2022/06/13 07:24:20;;;;;;;7.07;2.70;;;;;;;25.18;45.13;98431.19;4998981;28;20042;-72
2022/06/13 07:26:46;;;;;;;5.97;2.78;;;;;;;25.07;45.10;98430.84;5031156;28;20499;-72
2022/06/13 07:29:12;;;;;;;3.40;2.45;;;;;;;25.03;45.20;98443.03;4998399;28;20021;-72
2022/06/13 07:31:43;;;;;;;8.02;2.80;;;;;;;24.95;45.57;98443.25;5030939;28;20459;-72
2022/06/13 07:34:17;;;;;;;4.60;2.80;;;;;;;24.90;45.27;98445.78;5014585;28;20025;-72
2022/06/13 07:36:42;;;;;;;4.63;2.55;;;;;;;24.80;45.50;98434.78;5032091;28;20040;-72
2022/06/13 07:39:08;;;;;;;3.80;2.35;;;;;;;24.77;45.73;98445.88;5014603;28;20033;-72
2022/06/13 07:41:34;;;;;;;5.72;2.78;;;;;;;24.68;45.90;98450.66;5032162;28;20044;-72
2022/06/13 07:43:59;;;;;;;4.30;2.60;;;;;;;24.65;46.02;98451.88;5030843;28;20069;-71
2022/06/13 07:46:26;;;;;;;6.70;2.95;;;;;;;24.55;46.39;98443.53;5031047;28;20036;-71
2022/06/13 07:48:52;;;;;;;4.70;2.40;;;;;;;24.52;46.55;98443.94;5030948;28;20025;-70
2022/06/13 07:51:18;;;;;;;4.68;2.35;;;;;;;24.50;46.31;98462.03;5031053;28;20406;-71
2022/06/13 07:53:43;;;;;;;6.20;2.55;;;;;;;24.46;46.50;98456.28;5014691;28;20026;-73
2022/06/13 07:56:13;;;;;;;5.47;2.72;;;;;;;24.43;46.64;98467.41;5030827;28;20036;-71
2022/06/13 07:58:40;;;;;;;5.68;2.72;;;;;;;24.40;46.66;98470.50;4998190;28;20102;-72
2022/06/13 08:01:06;;;;;;;6.45;3.00;;;;;;;24.33;46.89;98469.72;5031121;28;20067;-72
2022/06/13 08:03:33;;;;;;;6.20;2.90;;;;;;;24.32;46.93;98476.91;5030737;28;20029;-71
2022/06/13 08:05:58;;;;;;;4.30;2.78;;;;;;;24.29;46.82;98474.66;5017108;28;20037;-71
2022/06/13 08:08:24;;;;;;;5.45;2.83;;;;;;;24.29;46.99;98490.66;5035596;28;20041;-71
2022/06/13 08:10:50;;;;;;;3.58;2.80;;;;;;;24.28;46.97;98499.69;5034510;28;20060;-72
2022/06/13 08:13:17;;;;;;;5.45;2.80;;;;;;;24.26;47.18;98483.06;5018005;28;20472;-72
2022/06/13 08:15:42;;;;;;;6.22;2.72;;;;;;;24.25;47.03;98475.28;5002037;28;20029;-72
2022/06/13 08:18:08;;;;;;;4.40;3.00;;;;;;;24.29;47.16;98488.00;5034284;28;20472;-72
2022/06/13 08:20:34;;;;;;;6.10;2.90;;;;;;;24.29;47.14;98485.31;5034343;28;20037;-72
2022/06/13 08:23:00;;;;;;;5.15;3.17;;;;;;;24.31;47.20;98475.25;5017478;28;20045;-71
2022/06/13 08:25:27;;;;;;;4.30;2.88;;;;;;;24.29;47.30;98489.81;5017873;28;20037;-71
2022/06/13 08:27:54;;;;;;;4.57;2.88;;;;;;;24.31;47.42;98485.09;5001928;28;20048;-72
2022/06/13 08:30:19;;;;;;;5.75;2.83;;;;;;;24.28;47.22;98480.19;5034241;28;20025;-72
2022/06/13 08:32:45;;;;;;;4.95;2.80;;;;;;;24.31;47.13;98472.59;5017574;28;20048;-72
2022/06/13 08:35:11;;;;;;;5.10;2.78;;;;;;;24.30;47.42;98456.78;5035263;28;20049;-71
2022/06/13 08:37:37;;;;;;;8.25;3.65;;;;;;;24.33;47.37;98475.03;5017749;28;20026;-74
2022/06/13 08:40:03;;;;;;;6.28;3.03;;;;;;;24.31;47.62;98477.91;5034159;28;20045;-71
2022/06/13 08:42:57;;;;;;;7.60;3.00;;;;;;;24.33;47.47;98488.38;5000947;28;20029;-72
2022/06/13 08:45:27;;;;;;;4.72;2.80;;;;;;;24.30;47.52;98481.59;5033667;28;20111;-71
2022/06/13 08:48:05;;;;;;;7.07;2.75;;;;;;;24.32;47.54;98503.56;5017615;28;20030;-72
2022/06/13 08:50:31;;;;;;;4.43;3.33;;;;;;;24.34;47.69;98506.03;5001112;28;20045;-71
2022/06/13 08:53:08;;;;;;;9.93;2.92;;;;;;;24.33;47.71;98510.53;5033597;28;20033;-73
2022/06/13 08:55:42;;;;;;;4.38;3.00;;;;;;;24.36;47.62;98510.09;5034937;28;20500;-71
2022/06/13 08:58:22;;;;;;;5.70;3.05;;;;;;;24.39;47.67;98515.00;5035370;28;20439;-71
2022/06/13 09:01:07;;;;;;;4.78;2.92;;;;;;;24.38;47.49;98505.41;5018438;28;20504;-71
2022/06/13 09:03:48;;;;;;;6.35;3.28;;;;;;;24.46;47.26;98517.66;5002617;28;20030;-71
2022/06/13 09:06:16;;;;;;;4.38;3.20;;;;;;;24.52;47.39;98510.66;5035261;28;20037;-71
2022/06/13 09:08:45;;;;;;;;;;;;;;;24.57;47.39;98510.84;5017660;28;20091;-72
2022/06/13 09:11:26;;;;;;;8.85;3.50;;;;;;;24.57;47.50;98505.53;5033460;28;19913;-71
2022/06/13 09:13:58;;;;;;;3.45;3.00;;;;;;;24.64;47.21;98508.97;5018538;28;20037;-73
2022/06/13 09:16:26;;;;;;;4.82;3.00;;;;;;;24.71;46.93;98509.75;5034406;28;20033;-73
2022/06/13 09:18:52;;;;;;;6.47;2.97;;;;;;;24.78;47.05;98514.22;5034327;28;20029;-71
2022/06/13 09:21:34;;;;;;;6.40;3.08;;;;;;;24.86;47.05;98506.81;5034149;28;20029;-71
2022/06/13 09:24:06;;;;;;;5.40;2.90;;;;;;;24.96;46.73;98513.53;5017457;28;20030;-74
2022/06/13 09:26:36;;;;;;;5.05;3.53;;;;;;;25.01;46.50;98506.47;5034355;28;20033;-72
2022/06/13 09:29:26;;;;;;;4.97;3.13;;;;;;;25.14;46.15;98502.91;5017138;28;20029;-72
2022/06/13 09:32:05;;;;;;;3.70;3.10;;;;;;;25.23;45.88;98506.13;5019503;28;20039;-72
2022/06/13 09:34:43;;;;;;;4.25;3.20;;;;;;;25.37;45.71;98521.03;5000514;28;20029;-72
2022/06/13 09:37:09;;;;;;;4.65;3.17;;;;;;;25.48;45.75;98518.72;5016892;28;20048;-72
2022/06/13 09:39:34;;;;;;;4.72;3.22;;;;;;;25.56;45.52;98510.41;5034236;28;20033;-71
2022/06/13 09:42:21;;;;;;;7.60;3.45;;;;;;;25.67;45.18;98520.38;5033164;28;20030;-72
2022/06/13 09:45:09;;;;;;;5.43;3.20;;;;;;;25.77;45.07;98517.19;5034064;28;20029;-73
2022/06/13 09:47:37;;;;;;;5.50;3.28;;;;;;;25.88;44.57;98516.44;5033953;28;20033;-72
2022/06/13 09:50:10;;;;;;;4.80;3.17;;;;;;;25.98;44.42;98513.28;5033970;28;20029;-70
2022/06/13 09:52:51;;;;;;;4.90;2.90;;;;;;;26.11;44.32;98518.50;5016460;28;20056;-72
2022/06/13 09:55:22;;;;;;;4.38;2.90;;;;;;;26.23;44.33;98517.75;5033864;28;20033;-71
2022/06/13 09:58:02;;;;;;;3.25;2.80;;;;;;;26.34;43.89;98514.31;5032605;28;20373;-72
2022/06/13 10:00:45;;;;;;;5.28;3.30;;;;;;;26.46;43.62;98509.03;5032581;28;20473;-72
2022/06/13 10:03:33;;;;;;;4.18;2.95;;;;;;;26.60;43.29;98515.84;5001700;28;20029;-72
2022/06/13 10:06:06;;;;;;;10.02;3.30;;;;;;;26.69;43.28;98509.16;5033041;28;20025;-72
2022/06/13 10:08:38;;;;;;;4.38;3.05;;;;;;;26.83;43.32;98511.63;5032880;28;20025;-72
2022/06/13 10:11:24;;;;;;;6.10;2.90;;;;;;;26.90;42.98;98521.22;5015762;28;20044;-71
2022/06/13 10:14:09;;;;;;;5.05;3.08;;;;;;;27.00;43.07;98511.81;5033754;28;20119;-72
2022/06/13 10:16:57;;;;;;;5.10;3.05;;;;;;;27.12;42.75;98518.03;5016544;28;20041;-72
2022/06/13 10:19:40;;;;;;;3.95;3.03;;;;;;;27.19;42.49;98525.94;5017641;28;20026;-72
2022/06/13 10:22:12;;;;;;;6.35;3.00;;;;;;;27.28;42.44;98527.25;5017387;28;20055;-70
2022/06/13 10:24:53;;;;;;;4.47;2.80;;;;;;;27.33;42.73;98527.41;5016146;28;20041;-72
2022/06/13 10:27:42;;;;;;;4.55;3.05;;;;;;;27.40;42.39;98517.38;5032664;28;20030;-72
2022/06/13 10:30:08;;;;;;;5.95;3.05;;;;;;;27.44;42.55;98523.09;5032266;28;20112;-71
2022/06/13 10:33:03;;;;;;;4.97;2.72;;;;;;;27.50;42.18;98515.97;5033209;28;20029;-71
2022/06/13 10:35:49;;;;;;;7.28;2.90;;;;;;;27.53;42.39;98529.75;5031892;28;20030;-71
2022/06/13 10:38:24;;;;;;;5.10;3.20;;;;;;;27.57;42.65;98525.53;4999238;28;20041;-71
2022/06/13 10:40:49;;;;;;;3.92;3.00;;;;;;;27.61;42.47;98523.19;5033179;28;20469;-72
2022/06/13 10:43:15;;;;;;;4.53;2.88;;;;;;;27.67;42.30;98524.16;4998561;28;20065;-71
2022/06/13 10:45:41;;;;;;;6.53;3.00;;;;;;;27.74;42.10;98514.94;5033100;28;20078;-72
2022/06/13 10:48:21;;;;;;;5.80;3.15;;;;;;;27.79;42.00;98520.41;5031595;28;20029;-71
2022/06/13 10:50:58;;;;;;;5.38;3.08;;;;;;;27.87;41.92;98510.38;5031475;28;20025;-72
2022/06/13 10:53:34;;;;;;;3.80;2.90;;;;;;;27.96;42.11;98522.41;5015306;28;20037;-71
2022/06/13 10:56:00;;;;;;;5.47;3.22;;;;;;;28.02;41.69;98512.59;5032014;28;20037;-72
2022/06/13 10:58:50;;;;;;;4.10;3.08;;;;;;;28.14;41.73;98513.38;5015287;28;20404;-71
2022/06/13 11:01:17;;;;;;;7.32;3.15;;;;;;;28.23;41.66;98516.50;5030688;28;20060;-72
2022/06/13 11:04:04;;;;;;;8.65;3.58;;;;;;;28.40;41.51;98508.53;5013895;28;20038;-71
2022/06/13 11:06:57;;;;;;;3.65;2.90;;;;;;;28.49;41.36;98502.53;5016299;28;20033;-71
2022/06/13 11:09:34;;;;;;;4.82;3.20;;;;;;;28.58;41.10;98508.38;5011075;28;20462;-73
2022/06/13 11:12:02;;;;;;;8.38;3.40;;;;;;;28.64;41.18;98501.25;5030363;28;20535;-71
2022/06/13 11:23:02;;;;;;;4.10;3.00;;;;;;;28.99;40.57;98494.88;4971188;28;20065;-72
2022/06/13 11:25:32;;;;;;;8.60;3.35;;;;;;;29.07;40.37;98497.16;4939368;28;20043;-72
2022/06/13 11:28:21;;;;;;;3.88;3.08;;;;;;;29.22;40.14;98491.22;4939244;28;20045;-71
2022/06/13 11:31:25;;;;;;;4.50;3.15;;;;;;;29.32;39.92;98483.34;4940841;28;20039;-71
2022/06/13 11:33:52;;;;;;;4.82;2.97;;;;;;;29.40;39.56;98490.19;4932730;29;20122;-72
2022/06/13 11:36:28;;;;;;;6.70;3.07;;;;;;;29.47;39.41;98492.69;4932648;29;20047;-72
2022/06/13 11:39:00;;;;;;;5.45;2.95;;;;;;;29.62;39.25;98492.09;4937412;29;20334;-71
2022/06/13 11:41:44;;;;;;;4.57;2.88;;;;;;;29.69;38.97;98488.16;4923955;29;20046;-71
2022/06/13 11:44:14;;;;;;;4.10;3.13;;;;;;;29.80;38.90;98491.84;4926466;29;20036;-72
2022/06/13 11:46:51;;;;;;;5.05;2.97;;;;;;;29.86;38.84;98490.03;4940110;29;20509;-71
2022/06/13 11:49:16;;;;;;;4.05;3.03;;;;;;;29.97;38.90;98488.28;4941308;29;20039;-71
2022/06/13 11:51:43;;;;;;;4.38;3.00;;;;;;;30.04;38.82;98483.53;4955964;29;20134;-71
2022/06/13 11:54:28;;;;;;;3.80;3.00;;;;;;;30.16;38.31;98489.59;4939721;29;20043;-73
2022/06/13 11:57:12;;;;;;;7.00;3.00;;;;;;;30.23;38.17;98495.59;4940782;29;20502;-73
2022/06/13 11:59:49;;;;;;;4.57;2.90;;;;;;;30.41;38.31;98488.28;4968476;28;20409;-71
2022/06/13 12:02:26;;;;;;;8.07;3.25;;;;;;;30.58;37.59;98480.91;4978301;28;20050;-72
2022/06/13 12:04:55;;;;;;;4.65;2.90;;;;;;;30.72;37.84;98483.22;4978311;28;20125;-71
2022/06/13 12:07:29;;;;;;;5.00;2.97;;;;;;;30.67;37.91;98470.50;4978306;28;20038;-72
2022/06/13 12:09:57;;;;;;;3.65;2.80;;;;;;;30.76;38.07;98471.69;5017799;28;20049;-72
2022/06/13 12:12:23;;;;;;;4.00;2.95;;;;;;;30.87;37.55;98471.75;5034618;28;20087;-71
2022/06/13 12:14:49;;;;;;;5.22;2.80;;;;;;;30.84;37.26;98471.22;5001809;28;20045;-72